createdAt,value
2023-01-24T00:00:06.955Z,18.09
2023-01-24T00:01:06.978Z,18.05
2023-01-24T00:02:07.058Z,18.04
2023-01-24T00:03:07.016Z,18.05
2023-01-24T00:04:07.007Z,18.05
2023-01-24T00:05:07.010Z,18.10
2023-01-24T00:06:07.032Z,18.11
2023-01-24T00:07:07.049Z,18.07
2023-01-24T00:08:07.073Z,18.09
2023-01-24T00:09:07.085Z,18.10
2023-01-24T00:10:07.231Z,18.09
2023-01-24T00:11:07.120Z,18.09
2023-01-24T00:12:07.135Z,18.13
2023-01-24T00:13:07.159Z,18.07
2023-01-24T00:14:07.172Z,18.09
2023-01-24T00:15:07.188Z,18.09
2023-01-24T00:16:07.337Z,18.05
2023-01-24T00:17:07.201Z,18.09
2023-01-24T00:18:07.215Z,18.09
2023-01-24T00:19:07.211Z,18.05
2023-01-24T00:20:07.259Z,18.05
2023-01-24T00:21:07.270Z,18.07
2023-01-24T00:22:07.241Z,18.07
2023-01-24T00:23:07.260Z,18.07
2023-01-24T00:24:07.389Z,18.04
2023-01-24T00:25:07.324Z,18.07
2023-01-24T00:26:07.437Z,18.09
2023-01-24T00:27:07.320Z,18.10
2023-01-24T00:28:07.336Z,18.10
2023-01-24T00:29:07.369Z,18.10
2023-01-24T00:30:07.378Z,18.10
2023-01-24T00:31:07.534Z,18.09
2023-01-24T00:32:07.488Z,18.05
2023-01-24T00:33:07.376Z,18.05
2023-01-24T00:34:07.393Z,18.09
2023-01-24T00:35:07.422Z,18.05
2023-01-24T00:36:07.431Z,18.09
2023-01-24T00:37:07.437Z,18.09
2023-01-24T00:38:07.445Z,18.09
2023-01-24T00:39:07.468Z,18.05
2023-01-24T00:40:07.499Z,18.09
2023-01-24T00:41:07.536Z,18.07
2023-01-24T00:42:07.646Z,18.07
2023-01-24T00:43:07.527Z,18.05
2023-01-24T00:44:07.544Z,18.05
2023-01-24T00:45:07.568Z,18.01
2023-01-24T00:46:07.672Z,18.02
2023-01-24T00:47:07.610Z,18.02
2023-01-24T00:48:07.629Z,18.04
2023-01-24T00:49:07.665Z,18.02
2023-01-24T00:50:08.693Z,18.02
2023-01-24T00:51:07.687Z,18.04
2023-01-24T00:52:07.713Z,18.07
2023-01-24T00:53:07.714Z,18.07
2023-01-24T00:54:07.692Z,18.05
2023-01-24T00:55:07.707Z,18.04
2023-01-24T00:56:07.733Z,18.02
2023-01-24T00:57:07.781Z,17.99
2023-01-24T00:58:07.918Z,18.02
2023-01-24T00:59:07.789Z,18.05
2023-01-24T01:00:07.815Z,18.09
2023-01-24T01:01:07.810Z,18.04
2023-01-24T01:02:07.827Z,18.04
2023-01-24T01:03:07.863Z,18.04
2023-01-24T01:04:07.812Z,18.04
2023-01-24T01:05:07.835Z,18.05
2023-01-24T01:06:07.861Z,18.07
2023-01-24T01:07:07.886Z,18.07
2023-01-24T01:08:07.869Z,18.07
2023-01-24T01:09:07.849Z,18.05
2023-01-24T01:10:07.861Z,18.07
2023-01-24T01:11:07.882Z,18.05
2023-01-24T01:12:07.904Z,18.02
2023-01-24T01:13:07.927Z,18.04
2023-01-24T01:14:08.023Z,18.05
2023-01-24T01:15:07.930Z,18.07
2023-01-24T01:16:08.002Z,18.11
2023-01-24T01:17:07.947Z,18.13
2023-01-24T01:18:07.972Z,18.14
2023-01-24T01:19:07.988Z,18.11
2023-01-24T01:20:08.025Z,18.11
2023-01-24T01:21:08.039Z,18.10
2023-01-24T01:22:08.033Z,18.07
2023-01-24T01:23:08.109Z,18.05
2023-01-24T01:24:08.208Z,18.04
2023-01-24T01:25:08.090Z,18.07
2023-01-24T01:26:08.121Z,18.04
2023-01-24T01:27:08.127Z,18.09
2023-01-24T01:28:08.162Z,18.09
2023-01-24T01:29:08.195Z,18.09
2023-01-24T01:30:08.326Z,18.10
2023-01-24T01:31:08.362Z,18.14
2023-01-24T01:32:08.271Z,18.16
2023-01-24T01:33:08.251Z,18.20
2023-01-24T01:34:08.266Z,18.16
2023-01-24T01:35:08.284Z,18.13
2023-01-24T01:36:08.271Z,18.13
2023-01-24T01:37:08.253Z,18.11
2023-01-24T01:38:08.275Z,18.10
2023-01-24T01:39:08.291Z,18.10
2023-01-24T01:40:08.307Z,18.10
2023-01-24T01:41:08.334Z,18.10
2023-01-24T01:42:08.372Z,18.11
2023-01-24T01:43:08.346Z,18.14
2023-01-24T01:44:08.371Z,18.16
2023-01-24T01:45:08.389Z,18.13
2023-01-24T01:46:08.619Z,18.11
2023-01-24T01:47:08.438Z,18.11
2023-01-24T01:48:08.689Z,18.09
2023-01-24T01:49:08.488Z,18.09
2023-01-24T01:50:08.497Z,18.07
2023-01-24T01:51:08.512Z,18.07
2023-01-24T01:52:08.559Z,18.04
2023-01-24T01:53:08.534Z,18.01
2023-01-24T01:54:08.515Z,18.01
2023-01-24T01:55:08.553Z,18.09
2023-01-24T01:56:08.562Z,18.10
2023-01-24T01:57:08.577Z,18.11
2023-01-24T01:58:08.618Z,18.14
2023-01-24T01:59:08.590Z,18.13
2023-01-24T02:00:08.615Z,18.14
2023-01-24T02:01:08.775Z,18.14
2023-01-24T02:02:08.794Z,18.09
2023-01-24T02:03:08.623Z,18.07
2023-01-24T02:04:08.657Z,18.10
2023-01-24T02:05:08.687Z,18.13
2023-01-24T02:06:08.716Z,18.11
2023-01-24T02:07:08.729Z,18.09
2023-01-24T02:08:08.747Z,18.11
2023-01-24T02:09:08.765Z,18.16
2023-01-24T02:10:08.748Z,18.17
2023-01-24T02:11:08.764Z,18.11
2023-01-24T02:12:08.779Z,18.14
2023-01-24T02:13:08.794Z,18.11
2023-01-24T02:14:08.819Z,18.10
2023-01-24T02:15:08.852Z,18.11
2023-01-24T02:16:08.890Z,18.14
2023-01-24T02:17:08.858Z,18.14
2023-01-24T02:18:08.994Z,18.14
2023-01-24T02:19:08.877Z,18.13
2023-01-24T02:20:08.899Z,18.11
2023-01-24T02:21:08.867Z,18.09
2023-01-24T02:22:08.879Z,18.02
2023-01-24T02:23:08.893Z,18.04
2023-01-24T02:24:08.946Z,18.09
2023-01-24T02:25:08.954Z,18.09
2023-01-24T02:26:08.975Z,18.07
2023-01-24T02:27:08.986Z,18.09
2023-01-24T02:28:08.999Z,18.07
2023-01-24T02:29:09.027Z,18.05
2023-01-24T02:30:09.048Z,18.11
2023-01-24T02:31:09.166Z,18.10
2023-01-24T02:32:09.097Z,18.09
2023-01-24T02:33:09.116Z,18.11
2023-01-24T02:34:09.245Z,18.13
2023-01-24T02:35:09.128Z,18.13
2023-01-24T02:36:09.152Z,18.17
2023-01-24T02:37:09.167Z,18.11
2023-01-24T02:38:09.180Z,18.10
2023-01-24T02:39:09.229Z,18.10
2023-01-24T02:40:09.200Z,18.09
2023-01-24T02:41:09.215Z,18.09
2023-01-24T02:42:09.230Z,18.11
2023-01-24T02:43:09.255Z,18.09
2023-01-24T02:44:09.287Z,18.11
2023-01-24T02:45:09.301Z,18.09
2023-01-24T02:46:09.424Z,18.10
2023-01-24T02:47:09.314Z,18.09
2023-01-24T02:48:09.328Z,18.10
2023-01-24T02:49:09.359Z,18.05
2023-01-24T02:50:09.475Z,18.04
2023-01-24T02:51:09.366Z,18.09
2023-01-24T02:52:09.376Z,18.05
2023-01-24T02:53:09.403Z,18.07
2023-01-24T02:54:09.430Z,18.02
2023-01-24T02:55:09.443Z,18.04
2023-01-24T02:56:09.475Z,18.05
2023-01-24T02:57:09.501Z,18.05
2023-01-24T02:58:09.521Z,18.10
2023-01-24T02:59:09.531Z,18.07
2023-01-24T03:00:09.571Z,18.09
2023-01-24T03:01:09.665Z,18.05
2023-01-24T03:02:09.662Z,18.07
2023-01-24T03:03:09.620Z,18.07
2023-01-24T03:04:09.590Z,18.09
2023-01-24T03:05:09.635Z,18.09
2023-01-24T03:06:09.636Z,18.05
2023-01-24T03:07:09.648Z,18.09
2023-01-24T03:08:09.672Z,18.11
2023-01-24T03:09:09.696Z,18.11
2023-01-24T03:10:09.724Z,18.11
2023-01-24T03:11:09.699Z,18.11
2023-01-24T03:12:09.721Z,18.07
2023-01-24T03:13:09.742Z,18.05
2023-01-24T03:14:09.787Z,18.09
2023-01-24T03:15:09.770Z,18.11
2023-01-24T03:16:09.844Z,18.11
2023-01-24T03:17:09.775Z,18.10
2023-01-24T03:18:09.797Z,18.11
2023-01-24T03:19:09.817Z,18.09
2023-01-24T03:20:09.852Z,18.05
2023-01-24T03:21:09.862Z,18.04
2023-01-24T03:22:10.013Z,18.02
2023-01-24T03:23:09.893Z,18.01
2023-01-24T03:24:09.925Z,18.02
2023-01-24T03:25:09.946Z,18.02
2023-01-24T03:26:09.973Z,18.04
2023-01-24T03:27:10.026Z,18.07
2023-01-24T03:28:09.996Z,18.13
2023-01-24T03:29:10.020Z,18.11
2023-01-24T03:30:10.031Z,18.13
2023-01-24T03:31:10.061Z,18.11
2023-01-24T03:32:10.135Z,18.16
2023-01-24T03:33:10.086Z,18.17
2023-01-24T03:34:10.097Z,18.10
2023-01-24T03:35:10.114Z,18.09
2023-01-24T03:36:10.137Z,18.07
2023-01-24T03:37:10.137Z,18.07
2023-01-24T03:38:10.279Z,18.05
2023-01-24T03:39:10.171Z,18.05
2023-01-24T03:40:10.211Z,18.05
2023-01-24T03:41:10.219Z,18.04
2023-01-24T03:42:10.235Z,18.05
2023-01-24T03:43:10.263Z,18.04
2023-01-24T03:44:10.281Z,18.01
2023-01-24T03:45:10.307Z,18.04
2023-01-24T03:46:10.461Z,18.01
2023-01-24T03:47:10.320Z,18.01
2023-01-24T03:48:10.360Z,18.05
2023-01-24T03:49:10.375Z,18.05
2023-01-24T03:50:10.395Z,18.07
2023-01-24T03:51:10.412Z,18.05
2023-01-24T03:52:10.419Z,18.01
2023-01-24T03:53:10.432Z,17.98
2023-01-24T03:54:10.647Z,17.99
2023-01-24T03:55:10.477Z,18.02
2023-01-24T03:56:10.500Z,18.04
2023-01-24T03:57:10.526Z,18.02
2023-01-24T03:58:10.507Z,18.01
2023-01-24T03:59:10.779Z,18.02
2023-01-24T04:00:10.524Z,18.02
2023-01-24T04:01:10.587Z,18.04
2023-01-24T04:02:10.616Z,18.04
2023-01-24T04:03:10.555Z,18.07
2023-01-24T04:04:10.577Z,18.07
2023-01-24T04:05:10.607Z,18.09
2023-01-24T04:06:10.618Z,18.04
2023-01-24T04:07:25.277Z,18.07
2023-01-24T04:08:10.630Z,18.07
2023-01-24T04:09:10.654Z,18.04
2023-01-24T04:10:10.674Z,18.02
2023-01-24T04:11:10.641Z,18.07
2023-01-24T04:12:10.663Z,18.05
2023-01-24T04:13:10.679Z,18.09
2023-01-24T04:14:10.702Z,18.11
2023-01-24T04:15:10.715Z,18.13
2023-01-24T04:16:10.728Z,18.10
2023-01-24T04:17:10.718Z,18.10
2023-01-24T04:18:10.743Z,18.05
2023-01-24T04:19:10.772Z,18.07
2023-01-24T04:20:10.784Z,18.07
2023-01-24T04:21:10.796Z,18.07
2023-01-24T04:22:10.814Z,18.09
2023-01-24T04:23:10.840Z,18.04
2023-01-24T04:24:10.915Z,18.04
2023-01-24T04:25:10.876Z,18.05
2023-01-24T04:26:10.934Z,18.07
2023-01-24T04:27:10.909Z,18.07
2023-01-24T04:28:10.924Z,18.09
2023-01-24T04:29:10.937Z,18.09
2023-01-24T04:30:10.943Z,18.09
2023-01-24T04:31:11.184Z,18.07
2023-01-24T04:32:10.945Z,18.09
2023-01-24T04:33:10.957Z,18.04
2023-01-24T04:34:10.983Z,18.02
2023-01-24T04:35:11.012Z,18.02
2023-01-24T04:36:11.034Z,18.02
2023-01-24T04:37:11.049Z,17.99
2023-01-24T04:38:11.087Z,18.01
2023-01-24T04:39:11.106Z,18.01
2023-01-24T04:40:11.125Z,17.98
2023-01-24T04:41:11.149Z,18.01
2023-01-24T04:42:11.288Z,18.04
2023-01-24T04:43:11.170Z,18.02
2023-01-24T04:44:11.177Z,18.04
2023-01-24T04:45:11.214Z,18.02
2023-01-24T04:46:11.193Z,18.04
2023-01-24T04:47:11.286Z,17.98
2023-01-24T04:48:11.207Z,17.96
2023-01-24T04:49:11.231Z,17.96
2023-01-24T04:50:11.249Z,17.98
2023-01-24T04:51:11.266Z,17.96
2023-01-24T04:52:11.303Z,17.91
2023-01-24T04:53:11.324Z,17.92
2023-01-24T04:54:11.343Z,17.94
2023-01-24T04:55:11.372Z,17.92
2023-01-24T04:56:11.394Z,17.94
2023-01-24T04:57:11.419Z,17.91
2023-01-24T04:58:11.554Z,17.92
2023-01-24T04:59:11.443Z,17.91
2023-01-24T05:00:11.475Z,17.92
2023-01-24T05:01:11.515Z,17.95
2023-01-24T05:02:11.504Z,17.94
2023-01-24T05:03:11.577Z,17.92
2023-01-24T05:04:11.480Z,17.94
2023-01-24T05:05:11.507Z,17.92
2023-01-24T05:06:11.528Z,17.89
2023-01-24T05:07:11.549Z,17.91
2023-01-24T05:08:11.578Z,17.91
2023-01-24T05:09:11.560Z,17.91
2023-01-24T05:10:11.545Z,17.94
2023-01-24T05:11:13.709Z,17.91
2023-01-24T05:12:11.567Z,17.92
2023-01-24T05:13:11.585Z,17.91
2023-01-24T05:14:11.724Z,17.92
2023-01-24T05:15:11.608Z,17.95
2023-01-24T05:16:11.594Z,17.92
2023-01-24T05:17:11.669Z,17.94
2023-01-24T05:18:11.602Z,17.95
2023-01-24T05:19:11.625Z,17.94
2023-01-24T05:20:11.635Z,17.95
2023-01-24T05:21:11.684Z,17.94
2023-01-24T05:22:11.663Z,17.95
2023-01-24T05:23:11.687Z,17.95
2023-01-24T05:24:11.766Z,17.96
2023-01-24T05:25:11.704Z,17.94
2023-01-24T05:26:11.738Z,17.95
2023-01-24T05:27:11.714Z,17.95
2023-01-24T05:28:11.735Z,17.98
2023-01-24T05:29:11.748Z,17.96
2023-01-24T05:30:12.142Z,17.98
2023-01-24T05:31:11.889Z,17.98
2023-01-24T05:32:11.782Z,17.96
2023-01-24T05:33:11.796Z,18.01
2023-01-24T05:34:11.815Z,17.95
2023-01-24T05:35:11.855Z,17.91
2023-01-24T05:36:11.874Z,17.95
2023-01-24T05:37:11.862Z,17.95
2023-01-24T05:38:11.866Z,17.98
2023-01-24T05:39:11.901Z,17.95
2023-01-24T05:40:11.871Z,17.94
2023-01-24T05:41:11.905Z,17.92
2023-01-24T05:42:11.900Z,17.95
2023-01-24T05:43:11.887Z,17.89
2023-01-24T05:44:11.909Z,17.86
2023-01-24T05:45:11.949Z,17.80
2023-01-24T05:46:12.092Z,17.74
2023-01-24T05:47:11.951Z,17.71
2023-01-24T05:48:11.973Z,17.70
2023-01-24T05:49:12.003Z,17.71
2023-01-24T05:50:12.030Z,17.68
2023-01-24T05:51:12.056Z,17.71
2023-01-24T05:52:12.046Z,17.73
2023-01-24T05:53:12.077Z,17.74
2023-01-24T05:54:12.102Z,17.71
2023-01-24T05:55:12.116Z,17.77
2023-01-24T05:56:12.141Z,17.81
2023-01-24T05:57:12.121Z,17.84
2023-01-24T05:58:12.143Z,17.89
2023-01-24T05:59:12.177Z,17.95
2023-01-24T06:00:12.198Z,17.99
2023-01-24T06:02:38.314Z,18.04
2023-01-24T06:03:38.131Z,18.05
2023-01-24T06:04:38.154Z,17.95
2023-01-24T06:05:38.147Z,17.84
2023-01-24T06:06:38.175Z,17.81
2023-01-24T06:07:38.208Z,17.71
2023-01-24T06:08:38.214Z,17.65
2023-01-24T06:09:38.195Z,17.60
2023-01-24T06:10:38.214Z,17.53
2023-01-24T06:11:38.201Z,17.46
2023-01-24T06:12:38.226Z,17.45
2023-01-24T06:13:38.263Z,17.40
2023-01-24T06:14:38.240Z,17.33
2023-01-24T06:15:38.308Z,17.32
2023-01-24T06:16:38.296Z,17.30
2023-01-24T06:17:38.305Z,17.33
2023-01-24T06:18:38.466Z,17.32
2023-01-24T06:19:38.344Z,17.35
2023-01-24T06:20:38.374Z,17.28
2023-01-24T06:21:38.407Z,17.27
2023-01-24T06:22:38.421Z,17.25
2023-01-24T06:23:38.459Z,17.25
2023-01-24T06:24:38.444Z,17.21
2023-01-24T06:25:38.466Z,17.20
2023-01-24T06:26:38.484Z,17.17
2023-01-24T06:27:38.503Z,17.12
2023-01-24T06:28:38.542Z,17.14
2023-01-24T06:29:38.574Z,17.15
2023-01-24T06:30:38.713Z,17.17
2023-01-24T06:31:38.620Z,17.21
2023-01-24T06:32:38.574Z,17.22
2023-01-24T06:33:38.604Z,17.17
2023-01-24T06:34:38.705Z,17.14
2023-01-24T06:35:38.585Z,17.17
2023-01-24T06:36:38.608Z,17.20
2023-01-24T06:37:38.630Z,17.15
2023-01-24T06:38:38.645Z,17.15
2023-01-24T06:39:38.675Z,17.20
2023-01-24T06:40:38.690Z,17.22
2023-01-24T06:41:38.732Z,17.27
2023-01-24T06:42:38.719Z,17.35
2023-01-24T06:43:38.726Z,17.43
2023-01-24T06:44:38.742Z,17.54
2023-01-24T06:45:38.772Z,17.54
2023-01-24T06:46:38.856Z,17.58
2023-01-24T06:47:38.819Z,17.60
2023-01-24T06:48:38.807Z,17.62
2023-01-24T06:49:38.818Z,17.60
2023-01-24T06:50:38.963Z,17.62
2023-01-24T06:51:38.868Z,17.66
2023-01-24T06:52:38.881Z,17.60
2023-01-24T06:53:38.892Z,17.55
2023-01-24T06:54:38.910Z,17.55
2023-01-24T06:55:39.248Z,17.58
2023-01-24T06:56:38.946Z,17.63
2023-01-24T06:57:38.963Z,17.74
2023-01-24T06:58:38.981Z,17.81
2023-01-24T06:59:38.995Z,17.83
2023-01-24T07:00:39.024Z,17.84
2023-01-24T07:01:39.035Z,17.84
2023-01-24T07:02:39.102Z,17.86
2023-01-24T07:03:39.032Z,17.94
2023-01-24T07:04:39.048Z,17.94
2023-01-24T07:05:39.380Z,17.95
2023-01-24T07:06:39.220Z,18.01
2023-01-24T07:07:39.117Z,17.99
2023-01-24T07:08:39.139Z,18.02
2023-01-24T07:09:39.141Z,18.04
2023-01-24T07:10:39.176Z,17.99
2023-01-24T07:11:39.293Z,18.02
2023-01-24T07:12:39.177Z,18.02
2023-01-24T07:13:39.219Z,18.01
2023-01-24T07:14:39.206Z,18.02
2023-01-24T07:15:39.238Z,18.05
2023-01-24T07:16:39.203Z,18.04
2023-01-24T07:17:39.283Z,18.01
2023-01-24T07:18:39.215Z,18.02
2023-01-24T07:19:39.258Z,18.05
2023-01-24T07:20:39.382Z,18.07
2023-01-24T07:21:39.252Z,18.14
2023-01-24T07:22:39.393Z,18.17
2023-01-24T07:23:39.271Z,18.17
2023-01-24T07:24:39.286Z,18.19
2023-01-24T07:25:39.337Z,18.16
2023-01-24T07:26:39.339Z,18.13
2023-01-24T07:27:40.959Z,18.17
2023-01-24T07:28:39.315Z,18.16
2023-01-24T07:29:39.362Z,18.17
2023-01-24T07:30:39.392Z,18.19
2023-01-24T07:31:39.490Z,18.20
2023-01-24T07:32:39.366Z,18.20
2023-01-24T07:33:39.388Z,18.21
2023-01-24T07:34:39.439Z,18.20
2023-01-24T07:35:39.760Z,18.19
2023-01-24T07:36:39.437Z,18.21
2023-01-24T07:37:39.461Z,18.21
2023-01-24T07:38:39.534Z,18.20
2023-01-24T07:39:39.540Z,18.23
2023-01-24T07:40:39.559Z,18.25
2023-01-24T07:41:39.613Z,18.26
2023-01-24T07:42:39.550Z,18.29
2023-01-24T07:43:39.582Z,18.31
2023-01-24T07:44:39.609Z,18.31
2023-01-24T07:45:39.715Z,18.35
2023-01-24T07:46:39.659Z,18.32
2023-01-24T07:47:39.648Z,18.28
2023-01-24T07:48:39.705Z,18.25
2023-01-24T07:49:39.763Z,18.23
2023-01-24T07:50:40.271Z,18.25
2023-01-24T07:51:40.267Z,18.29
2023-01-24T07:52:40.265Z,18.32
2023-01-24T07:53:40.342Z,18.26
2023-01-24T07:54:40.304Z,18.28
2023-01-24T07:55:41.144Z,18.34
2023-01-24T07:56:39.695Z,18.34
2023-01-24T07:57:40.269Z,18.35
2023-01-24T07:58:39.782Z,18.35
2023-01-24T07:59:40.263Z,18.34
2023-01-24T08:00:40.269Z,18.35
2023-01-24T08:01:39.776Z,18.36
2023-01-24T08:02:40.299Z,18.34
2023-01-24T08:03:40.264Z,18.31
2023-01-24T08:04:39.754Z,18.31
2023-01-24T08:05:39.948Z,18.31
2023-01-24T08:06:39.824Z,18.34
2023-01-24T08:07:39.825Z,18.32
2023-01-24T08:08:39.814Z,18.36
2023-01-24T08:09:40.951Z,18.36
2023-01-24T08:10:39.944Z,18.39
2023-01-24T08:11:39.835Z,18.36
2023-01-24T08:12:39.866Z,18.41
2023-01-24T08:13:39.892Z,18.39
2023-01-24T08:14:39.915Z,18.44
2023-01-24T08:15:39.912Z,18.42
2023-01-24T08:16:40.016Z,18.41
2023-01-24T08:17:39.941Z,18.44
2023-01-24T08:18:40.027Z,18.44
2023-01-24T08:19:55.385Z,18.38
2023-01-24T08:20:39.992Z,18.39
2023-01-24T08:21:39.995Z,18.41
2023-01-24T08:22:52.440Z,18.46
2023-01-24T08:23:40.004Z,18.47
2023-01-24T08:24:40.009Z,18.46
2023-01-24T08:25:40.069Z,18.41
2023-01-24T08:26:40.034Z,18.38
2023-01-24T08:27:40.015Z,18.46
2023-01-24T08:28:40.014Z,18.46
2023-01-24T08:29:40.041Z,18.46
2023-01-24T08:30:40.237Z,18.46
2023-01-24T08:31:40.142Z,18.47
2023-01-24T08:32:40.027Z,18.50
2023-01-24T08:33:40.012Z,18.47
2023-01-24T08:34:40.023Z,18.49
2023-01-24T08:35:40.026Z,18.54
2023-01-24T08:36:40.055Z,18.53
2023-01-24T08:37:40.097Z,18.53
2023-01-24T08:38:40.072Z,18.57
2023-01-24T08:39:40.284Z,18.57
2023-01-24T08:40:48.993Z,18.60
2023-01-24T08:41:40.111Z,18.56
2023-01-24T08:42:40.139Z,18.51
2023-01-24T08:43:40.083Z,18.54
2023-01-24T08:44:40.079Z,18.56
2023-01-24T08:45:40.135Z,18.57
2023-01-24T08:46:42.826Z,18.60
2023-01-24T08:47:40.124Z,18.56
2023-01-24T08:48:40.184Z,18.57
2023-01-24T08:49:40.331Z,18.56
2023-01-24T08:50:40.788Z,18.57
2023-01-24T08:51:40.179Z,18.56
2023-01-24T08:52:40.208Z,18.54
2023-01-24T08:53:40.192Z,18.56
2023-01-24T08:54:40.256Z,18.57
2023-01-24T08:55:40.258Z,18.60
2023-01-24T08:56:40.263Z,18.65
2023-01-24T08:57:40.261Z,18.66
2023-01-24T08:58:40.303Z,18.65
2023-01-24T08:59:40.282Z,18.64
2023-01-24T09:00:40.313Z,18.60
2023-01-24T09:01:40.325Z,18.64
2023-01-24T09:02:40.337Z,18.65
2023-01-24T09:03:40.325Z,18.65
2023-01-24T09:04:40.337Z,18.64
2023-01-24T09:05:40.471Z,18.68
2023-01-24T09:06:40.387Z,18.69
2023-01-24T09:07:40.374Z,18.66
2023-01-24T09:08:40.373Z,18.72
2023-01-24T09:09:40.412Z,18.71
2023-01-24T09:10:41.281Z,18.69
2023-01-24T09:11:40.440Z,18.71
2023-01-24T09:12:40.429Z,18.75
2023-01-24T09:13:40.459Z,18.79
2023-01-24T09:14:40.471Z,18.83
2023-01-24T09:15:40.471Z,18.79
2023-01-24T09:16:40.499Z,18.78
2023-01-24T09:17:40.494Z,18.76
2023-01-24T09:18:40.475Z,18.82
2023-01-24T09:19:40.504Z,18.83
2023-01-24T09:20:40.548Z,18.89
2023-01-24T09:21:40.514Z,18.87
2023-01-24T09:22:40.499Z,18.87
2023-01-24T09:23:40.484Z,18.86
2023-01-24T09:24:40.514Z,18.82
2023-01-24T09:25:40.501Z,18.79
2023-01-24T09:26:40.587Z,18.82
2023-01-24T09:27:40.731Z,18.82
2023-01-24T09:28:40.585Z,18.84
2023-01-24T09:29:40.577Z,18.84
2023-01-24T09:30:40.587Z,18.83
2023-01-24T09:31:40.635Z,18.89
2023-01-24T09:32:40.570Z,18.90
2023-01-24T09:33:50.314Z,18.86
2023-01-24T09:34:40.624Z,18.87
2023-01-24T09:35:40.631Z,18.93
2023-01-24T09:36:40.898Z,18.93
2023-01-24T09:37:40.689Z,18.94
2023-01-24T09:38:40.664Z,18.96
2023-01-24T09:39:40.719Z,18.96
2023-01-24T09:40:41.318Z,18.99
2023-01-24T09:41:40.720Z,18.97
2023-01-24T09:42:40.708Z,19.02
2023-01-24T09:43:40.732Z,19.07
2023-01-24T09:44:40.791Z,19.07
2023-01-24T09:45:40.806Z,19.06
2023-01-24T09:46:40.820Z,19.01
2023-01-24T09:47:42.430Z,19.02
2023-01-24T09:48:40.823Z,19.01
2023-01-24T09:49:40.817Z,19.02
2023-01-24T09:50:40.816Z,19.02
2023-01-24T09:51:40.799Z,18.99
2023-01-24T09:52:40.836Z,19.01
2023-01-24T09:53:40.825Z,18.99
2023-01-24T09:54:40.818Z,19.01
2023-01-24T09:55:40.810Z,18.99
2023-01-24T09:56:40.832Z,18.97
2023-01-24T09:57:40.865Z,19.02
2023-01-24T09:58:40.888Z,19.07
2023-01-24T09:59:40.887Z,19.10
2023-01-24T10:00:40.878Z,19.09
2023-01-24T10:01:40.869Z,19.09
2023-01-24T10:02:40.918Z,19.07
2023-01-24T10:03:40.956Z,19.07
2023-01-24T10:04:40.916Z,19.06
2023-01-24T10:05:40.961Z,19.12
2023-01-24T10:06:40.939Z,19.12
2023-01-24T10:07:40.927Z,19.09
2023-01-24T10:08:40.948Z,19.06
2023-01-24T10:09:41.311Z,19.07
2023-01-24T10:10:40.967Z,19.10
2023-01-24T10:11:40.966Z,19.13
2023-01-24T10:12:40.950Z,19.10
2023-01-24T10:13:40.945Z,19.12
2023-01-24T10:14:40.982Z,19.12
2023-01-24T10:15:41.003Z,19.13
2023-01-24T10:16:41.071Z,19.15
2023-01-24T10:17:41.056Z,19.13
2023-01-24T10:18:41.068Z,19.10
2023-01-24T10:19:41.078Z,19.12
2023-01-24T10:20:41.066Z,19.10
2023-01-24T10:21:41.095Z,19.13
2023-01-24T10:22:41.078Z,19.10
2023-01-24T10:23:41.067Z,19.15
2023-01-24T10:24:41.108Z,19.12
2023-01-24T10:25:41.090Z,19.09
2023-01-24T10:26:41.084Z,19.07
2023-01-24T10:27:41.085Z,19.07
2023-01-24T10:28:41.071Z,19.10
2023-01-24T10:29:41.065Z,19.12
2023-01-24T10:30:41.133Z,19.10
2023-01-24T10:31:41.297Z,19.12
2023-01-24T10:32:41.112Z,19.10
2023-01-24T10:33:41.134Z,19.09
2023-01-24T10:34:41.203Z,19.13
2023-01-24T10:35:41.187Z,19.10
2023-01-24T10:36:41.190Z,19.09
2023-01-24T10:37:41.178Z,19.10
2023-01-24T10:38:41.215Z,19.09
2023-01-24T10:39:41.225Z,19.09
2023-01-24T10:40:41.214Z,19.09
2023-01-24T10:41:41.209Z,19.10
2023-01-24T10:42:41.240Z,19.12
2023-01-24T10:43:41.259Z,19.10
2023-01-24T10:44:41.298Z,19.07
2023-01-24T10:45:41.374Z,19.12
2023-01-24T10:46:41.314Z,19.09
2023-01-24T10:47:41.310Z,19.09
2023-01-24T10:48:41.399Z,19.01
2023-01-24T10:49:41.343Z,19.02
2023-01-24T10:50:41.355Z,19.06
2023-01-24T10:51:41.361Z,19.12
2023-01-24T10:52:41.345Z,19.09
2023-01-24T10:53:41.390Z,19.09
2023-01-24T10:54:41.414Z,19.09
2023-01-24T10:55:41.401Z,19.09
2023-01-24T10:56:41.882Z,19.09
2023-01-24T10:57:41.434Z,19.12
2023-01-24T10:58:41.450Z,19.12
2023-01-24T10:59:41.452Z,19.10
2023-01-24T11:00:41.475Z,19.07
2023-01-24T11:01:41.573Z,19.10
2023-01-24T11:02:41.621Z,19.09
2023-01-24T11:03:41.962Z,19.06
2023-01-24T11:04:41.565Z,19.10
2023-01-24T11:05:41.574Z,19.06
2023-01-24T11:06:41.587Z,19.07
2023-01-24T11:07:41.577Z,19.09
2023-01-24T11:08:41.564Z,19.07
2023-01-24T11:09:41.612Z,19.09
2023-01-24T11:10:41.597Z,19.12
2023-01-24T11:11:41.627Z,19.12
2023-01-24T11:12:41.615Z,19.15
2023-01-24T11:13:41.624Z,19.12
2023-01-24T11:14:41.598Z,19.10
2023-01-24T11:15:41.587Z,19.06
2023-01-24T11:16:41.672Z,19.10
2023-01-24T11:17:41.621Z,19.09
2023-01-24T11:18:41.618Z,19.10
2023-01-24T11:19:41.647Z,19.13
2023-01-24T11:20:41.624Z,19.15
2023-01-24T11:21:41.615Z,19.15
2023-01-24T11:22:41.641Z,19.16
2023-01-24T11:23:41.646Z,19.15
2023-01-24T11:24:41.641Z,19.10
2023-01-24T11:25:41.628Z,19.10
2023-01-24T11:26:41.689Z,19.12
2023-01-24T11:27:41.695Z,19.13
2023-01-24T11:28:41.838Z,19.15
2023-01-24T11:29:41.671Z,19.16
2023-01-24T11:30:41.701Z,19.10
2023-01-24T11:31:41.830Z,19.13
2023-01-24T11:32:41.697Z,19.15
2023-01-24T11:33:41.695Z,19.16
2023-01-24T11:34:41.673Z,19.15
2023-01-24T11:35:41.696Z,19.17
2023-01-24T11:36:41.729Z,19.16
2023-01-24T11:37:41.792Z,19.17
2023-01-24T11:38:41.804Z,19.20
2023-01-24T11:39:41.796Z,19.21
2023-01-24T11:40:41.876Z,19.23
2023-01-24T11:41:41.807Z,19.20
2023-01-24T11:42:41.832Z,19.25
2023-01-24T11:43:41.868Z,19.28
2023-01-24T11:44:41.853Z,19.32
2023-01-24T11:45:41.872Z,19.32
2023-01-24T11:46:42.162Z,19.31
2023-01-24T11:47:41.929Z,19.30
2023-01-24T11:48:41.895Z,19.31
2023-01-24T11:49:41.921Z,19.32
2023-01-24T11:50:41.960Z,19.28
2023-01-24T11:51:41.953Z,19.25
2023-01-24T11:52:41.954Z,19.25
2023-01-24T11:53:41.928Z,19.23
2023-01-24T11:54:41.986Z,19.24
2023-01-24T11:55:41.934Z,19.24
2023-01-24T11:56:41.961Z,19.25
2023-01-24T11:57:41.957Z,19.28
2023-01-24T11:58:41.985Z,19.30
2023-01-24T11:59:42.034Z,19.27
2023-01-24T12:00:42.052Z,19.25
2023-01-24T12:01:42.072Z,19.23
2023-01-24T12:02:42.109Z,19.24
2023-01-24T12:03:42.113Z,19.24
2023-01-24T12:04:42.096Z,19.25
2023-01-24T12:05:42.126Z,19.24
2023-01-24T12:06:42.167Z,19.27
2023-01-24T12:07:42.160Z,19.25
2023-01-24T12:08:42.153Z,19.25
2023-01-24T12:09:42.164Z,19.28
2023-01-24T12:10:42.182Z,19.25
2023-01-24T12:11:42.171Z,19.23
2023-01-24T12:12:54.919Z,19.25
2023-01-24T12:13:42.207Z,19.25
2023-01-24T12:14:42.229Z,19.24
2023-01-24T12:15:42.272Z,19.23
2023-01-24T12:16:42.249Z,19.24
2023-01-24T12:17:42.291Z,19.27
2023-01-24T12:18:42.322Z,19.24
2023-01-24T12:19:42.315Z,19.25
2023-01-24T12:20:42.350Z,19.28
2023-01-24T12:21:42.398Z,19.28
2023-01-24T12:22:42.403Z,19.31
2023-01-24T12:23:42.397Z,19.30
2023-01-24T12:24:42.395Z,19.30
2023-01-24T12:25:42.455Z,19.30
2023-01-24T12:26:42.465Z,19.28
2023-01-24T12:27:42.440Z,19.30
2023-01-24T12:28:42.479Z,19.27
2023-01-24T12:29:42.457Z,19.28
2023-01-24T12:30:42.545Z,19.25
2023-01-24T12:31:42.538Z,19.28
2023-01-24T12:32:42.512Z,19.27
2023-01-24T12:33:42.568Z,19.27
2023-01-24T12:34:42.543Z,19.23
2023-01-24T12:35:42.734Z,19.24
2023-01-24T12:36:42.838Z,19.23
2023-01-24T12:37:42.652Z,19.23
2023-01-24T12:38:42.633Z,19.21
2023-01-24T12:39:42.633Z,19.20
2023-01-24T12:40:42.630Z,19.20
2023-01-24T12:41:42.624Z,19.21
2023-01-24T12:42:42.650Z,19.23
2023-01-24T12:43:42.737Z,19.23
2023-01-24T12:44:42.645Z,19.21
2023-01-24T12:45:42.657Z,19.23
2023-01-24T12:46:42.692Z,19.20
2023-01-24T12:47:42.696Z,19.23
2023-01-24T12:48:42.629Z,19.20
2023-01-24T12:49:45.235Z,19.21
2023-01-24T12:50:42.654Z,19.23
2023-01-24T12:51:42.658Z,19.20
2023-01-24T12:52:42.659Z,19.20
2023-01-24T12:53:42.675Z,19.21